Time;durP1;ratioP1;P1;durP2;ratioP2;P2;SDS_P1;SDS_P2;PMS_P1;PMS_P2;Temp;Humidity;BMP_temperature;BMP_pressure;BME280_temperature;BME280_humidity;BME280_pressure;Samples;Min_cycle;Max_cycle;Signal;HPM_P1;HPM_P2
2022/02/05 00:00:34;;;;;;;17.12;11.18;;;;;;;1.40;77.52;97555.52;1821953;78;21841;-67
2022/02/05 00:08:24;;;;;;;17.70;10.98;;;;;;;1.39;77.53;97552.08;1791365;78;21564;-63
2022/02/05 00:38:24;;;;;;;12.53;9.00;;;;;;;1.45;76.35;97540.28;1778565;80;20919;-69
2022/02/05 00:43:16;;;;;;;14.35;9.55;;;;;;;1.53;75.96;97545.16;1778465;80;20924;-69
2022/02/05 00:45:49;;;;;;;14.00;9.60;;;;;;;1.53;75.79;97549.88;1778491;80;20843;-66
2022/02/05 00:48:15;;;;;;;14.83;9.65;;;;;;;1.56;75.87;97538.05;1778279;80;21011;-69
2022/02/05 00:50:47;;;;;;;13.20;9.58;;;;;;;1.58;75.46;97539.41;1778746;80;20927;-63
2022/02/05 00:53:21;;;;;;;17.15;10.15;;;;;;;1.60;75.28;97532.03;1777841;80;21446;-69
2022/02/05 00:55:43;;;;;;;16.12;9.85;;;;;;;1.59;75.05;97529.64;1776659;80;20915;-66
2022/02/05 00:58:09;;;;;;;14.68;10.00;;;;;;;1.61;75.06;97523.59;1778420;80;20935;-65
2022/02/05 01:00:37;;;;;;;14.55;9.83;;;;;;;1.61;74.83;97519.64;1778509;80;20877;-63
2022/02/05 01:03:04;;;;;;;15.50;10.53;;;;;;;1.61;74.64;97523.08;1778617;80;20946;-62
2022/02/05 01:05:36;;;;;;;15.83;9.80;;;;;;;1.60;74.76;97523.34;1778563;80;21106;-66
2022/02/05 01:08:04;;;;;;;15.95;10.50;;;;;;;1.59;74.77;97521.73;1774369;79;20913;-65
2022/02/05 01:10:33;;;;;;;16.87;10.32;;;;;;;1.58;74.71;97520.14;1816685;79;21328;-63
2022/02/05 01:13:05;;;;;;;18.52;10.68;;;;;;;1.58;74.59;97520.14;1816697;79;20881;-63
2022/02/05 01:15:36;;;;;;;16.05;10.65;;;;;;;1.58;74.46;97524.11;1816091;79;20906;-63
2022/02/05 01:18:02;;;;;;;17.73;11.12;;;;;;;1.59;74.38;97525.17;1815733;79;21062;-65
2022/02/05 01:20:58;;;;;;;14.25;10.00;;;;;;;1.60;74.33;97528.62;1816105;79;20873;-63
2022/02/05 01:23:05;;;;;;;16.00;11.45;;;;;;;1.59;74.14;97525.69;1813006;79;25287;-68
2022/02/05 01:25:35;;;;;;;17.80;10.93;;;;;;;1.58;74.06;97528.07;1816235;79;20885;-68
2022/02/05 01:28:05;;;;;;;16.55;10.98;;;;;;;1.59;73.95;97528.33;1816261;79;20952;-68
2022/02/05 01:30:31;;;;;;;35.30;18.75;;;;;;;1.57;73.94;97525.14;1815561;79;21052;-69
2022/02/05 01:35:43;;;;;;;28.70;15.00;;;;;;;1.56;74.11;97530.13;1816827;79;20991;-67
2022/02/05 01:56:53;;;;;;;10.88;8.33;;;;;;;1.41;76.79;97524.66;1816885;79;21110;-60
2022/02/05 02:04:54;;;;;;;14.58;9.65;;;;;;;1.44;78.03;97494.60;1816874;79;20877;-67
2022/02/05 02:12:53;;;;;;;22.00;12.15;;;;;;;1.51;78.72;97493.13;1822263;78;20900;-65
2022/02/05 02:15:27;;;;;;;17.73;12.37;;;;;;;1.48;78.99;97497.05;1820639;78;21476;-67
2022/02/05 02:20:52;;;;;;;19.60;13.62;;;;;;;1.41;79.41;97502.23;1822490;78;21361;-62
2022/02/05 02:26:02;;;;;;;17.12;11.53;;;;;;;1.33;79.86;97492.36;1822328;78;20905;-63
2022/02/05 02:28:35;;;;;;;17.87;11.93;;;;;;;1.31;80.08;97493.13;1820852;78;21397;-67
2022/02/05 02:31:00;;;;;;;17.77;11.03;;;;;;;1.32;80.36;97493.39;1819152;78;20933;-65
2022/02/05 02:33:30;;;;;;;17.80;10.38;;;;;;;1.32;80.45;97486.80;1821413;78;20976;-68
2022/02/05 02:35:50;;;;;;;15.68;10.55;;;;;;;1.32;80.50;97477.56;1821034;78;21097;-69
2022/02/05 02:38:21;;;;;;;13.80;10.13;;;;;;;1.30;80.65;97470.41;1822253;78;20889;-66
2022/02/05 02:41:00;;;;;;;14.93;10.55;;;;;;;1.30;80.82;97469.61;1821937;78;20874;-68
2022/02/05 02:43:22;;;;;;;17.77;10.93;;;;;;;1.25;81.05;97467.70;1820207;78;21341;-69
2022/02/05 02:45:46;;;;;;;20.52;12.35;;;;;;;1.23;81.25;97459.23;1821462;78;20878;-67
2022/02/05 02:48:13;;;;;;;23.70;13.10;;;;;;;1.24;81.45;97452.93;1822311;78;21672;-65
2022/02/05 02:58:40;;;;;;;13.80;9.08;;;;;;;1.26;81.90;97460.08;1822349;78;21000;-64
2022/02/05 03:01:06;;;;;;;18.30;13.58;;;;;;;1.26;81.74;97448.72;1822498;78;21055;-65
2022/02/05 03:03:32;;;;;;;23.95;16.48;;;;;;;1.32;81.72;97450.38;1822183;78;20819;-62
2022/02/05 03:05:59;;;;;;;19.37;13.55;;;;;;;1.34;81.59;97449.09;1822267;78;20910;-68
2022/02/05 03:08:27;;;;;;;17.70;11.28;;;;;;;1.35;81.57;97445.42;1817912;78;20913;-66
2022/02/05 03:10:54;;;;;;;15.72;10.25;;;;;;;1.35;81.44;97452.02;1813584;79;20882;-67
2022/02/05 03:13:21;;;;;;;13.10;9.93;;;;;;;1.35;81.18;97450.70;1813751;79;21697;-69
2022/02/05 03:15:48;;;;;;;16.97;10.53;;;;;;;1.35;81.19;97446.73;1813606;79;20933;-67
2022/02/05 03:18:28;;;;;;;14.73;9.45;;;;;;;1.35;81.14;97449.38;1813674;79;20870;-69
2022/02/05 03:20:44;;;;;;;14.55;9.38;;;;;;;1.34;81.06;97451.73;1811724;78;21377;-61
2022/02/05 03:23:10;;;;;;;17.62;9.48;;;;;;;1.37;80.93;97451.25;1813688;79;20973;-65
2022/02/05 03:25:37;;;;;;;12.63;9.23;;;;;;;1.38;80.66;97444.13;1813607;79;21106;-69
2022/02/05 03:28:04;;;;;;;13.98;9.70;;;;;;;1.37;80.63;97445.97;1813695;79;21381;-67
2022/02/05 03:30:31;;;;;;;21.00;13.60;;;;;;;1.37;80.53;97442.01;1813745;79;20913;-61
2022/02/05 03:32:59;;;;;;;18.15;12.35;;;;;;;1.38;80.43;97441.49;1813626;79;21571;-65
2022/02/05 03:35:26;;;;;;;24.18;14.05;;;;;;;1.37;80.13;97431.45;1813563;79;20947;-65
2022/02/05 03:37:53;;;;;;;18.87;10.98;;;;;;;1.36;80.04;97429.88;1813657;79;21119;-66
2022/02/05 03:40:20;;;;;;;15.60;10.38;;;;;;;1.36;79.80;97432.52;1813576;79;20913;-65
2022/02/05 03:42:47;;;;;;;20.27;13.10;;;;;;;1.34;79.31;97434.57;1813649;79;20827;-65
2022/02/05 03:45:15;;;;;;;18.98;13.55;;;;;;;1.34;79.15;97429.30;1813605;79;20918;-63
2022/02/05 03:47:42;;;;;;;22.60;14.85;;;;;;;1.35;79.05;97424.30;1813674;79;20969;-66
2022/02/05 03:50:09;;;;;;;14.98;10.15;;;;;;;1.35;79.05;97420.86;1813522;79;21094;-63
2022/02/05 03:52:37;;;;;;;18.42;10.70;;;;;;;1.33;78.97;97422.44;1813674;79;21358;-63
2022/02/05 03:55:07;;;;;;;13.25;9.78;;;;;;;1.32;79.08;97422.15;1813739;79;20847;-63
2022/02/05 03:57:34;;;;;;;18.45;12.80;;;;;;;1.29;78.90;97423.98;1813797;79;20922;-68
2022/02/05 04:00:06;;;;;;;18.67;13.45;;;;;;;1.29;78.76;97425.30;1813855;79;20984;-68
2022/02/05 04:02:32;;;;;;;23.47;13.98;;;;;;;1.28;78.75;97431.61;1813856;79;21081;-67
2022/02/05 04:04:59;;;;;;;18.00;12.63;;;;;;;1.30;78.71;97418.16;1813515;79;20985;-68
2022/02/05 04:07:28;;;;;;;19.57;12.73;;;;;;;1.28;78.63;97423.69;1813619;79;20877;-69
2022/02/05 04:09:58;;;;;;;17.42;11.50;;;;;;;1.29;78.64;97418.70;1813818;78;20893;-65
2022/02/05 04:17:34;;;;;;;10.07;7.77;;;;;;;1.32;77.61;97415.55;1814038;78;20858;-69
2022/02/05 04:20:00;;;;;;;12.43;8.80;;;;;;;1.31;76.78;97411.34;1813597;79;20866;-68
2022/02/05 04:22:27;;;;;;;10.85;7.58;;;;;;;1.34;76.54;97414.78;1813585;79;20905;-63
2022/02/05 04:24:54;;;;;;;12.85;7.47;;;;;;;1.36;76.05;97407.45;1813557;79;20838;-69
2022/02/05 04:27:20;;;;;;;28.73;17.10;;;;;;;1.39;75.58;97414.84;1813865;79;21091;-70
2022/02/05 04:29:47;;;;;;;13.90;10.23;;;;;;;1.43;75.13;97412.53;1813528;78;20866;-68
2022/02/05 04:32:14;;;;;;;11.55;8.05;;;;;;;1.47;74.62;97412.83;1813601;78;20826;-68
2022/02/05 04:34:42;;;;;;;11.83;7.42;;;;;;;1.48;74.35;97407.83;1813665;78;21448;-69
2022/02/05 04:37:09;;;;;;;9.43;6.92;;;;;;;1.48;73.79;97400.72;1813497;79;20898;-70
2022/02/05 04:39:40;;;;;;;9.78;7.15;;;;;;;1.47;73.46;97407.55;1813661;79;21083;-69
2022/02/05 04:42:13;;;;;;;9.80;7.00;;;;;;;1.46;73.14;97404.10;1813194;78;20854;-66
2022/02/05 04:47:43;;;;;;;9.60;7.00;;;;;;;1.48;72.58;97395.95;1769728;79;20854;-64
2022/02/05 04:50:15;;;;;;;11.63;7.45;;;;;;;1.48;72.34;97388.04;1810530;78;20925;-68
2022/02/05 04:52:40;;;;;;;12.15;7.50;;;;;;;1.48;72.35;97380.13;1810051;79;21061;-65
2022/02/05 04:57:45;;;;;;;10.08;8.00;;;;;;;1.49;72.00;97386.98;1813778;78;21570;-62
2022/02/05 05:00:11;;;;;;;10.32;7.60;;;;;;;1.50;71.98;97385.95;1812037;79;20965;-64
2022/02/05 05:10:36;;;;;;;13.22;8.53;;;;;;;1.44;71.74;97397.50;1779763;78;20986;-62
2022/02/05 05:13:13;;;;;;;15.08;10.25;;;;;;;1.44;71.79;97394.32;1776817;80;21446;-68
2022/02/05 05:21:03;;;;;;;16.00;9.00;;;;;;;1.42;71.85;97405.64;1778590;80;20870;-66
2022/02/05 05:23:30;;;;;;;13.35;8.78;;;;;;;1.42;71.76;97402.20;1778384;80;20955;-63
2022/02/05 05:25:57;;;;;;;13.15;9.20;;;;;;;1.39;71.63;97401.66;1778399;80;20864;-66
2022/02/05 05:28:24;;;;;;;11.00;8.68;;;;;;;1.38;71.50;97398.76;1778604;80;21367;-63
2022/02/05 05:30:50;;;;;;;14.65;8.95;;;;;;;1.37;71.65;97401.11;1778764;80;20995;-63
2022/02/05 05:33:17;;;;;;;14.53;10.43;;;;;;;1.36;71.67;97397.41;1778427;80;20895;-64
2022/02/05 05:35:43;;;;;;;14.15;8.95;;;;;;;1.35;71.83;97396.60;1778744;80;20879;-68
2022/02/05 05:38:10;;;;;;;16.57;10.05;;;;;;;1.36;71.70;97392.94;1778548;80;20958;-69
2022/02/05 05:40:39;;;;;;;11.35;9.05;;;;;;;1.37;71.68;97395.02;1778508;80;20903;-62
2022/02/05 05:43:17;;;;;;;15.08;9.50;;;;;;;1.37;71.59;97385.27;1778494;80;21117;-62
2022/02/05 05:46:31;;;;;;;11.93;9.15;;;;;;;1.38;71.54;97378.97;1776314;80;20930;-67
2022/02/05 05:48:10;;;;;;;16.90;9.25;;;;;;;1.39;71.48;97383.19;1763264;80;20923;-68
2022/02/05 05:53:14;;;;;;;13.48;9.75;;;;;;;1.40;71.24;97387.95;1778424;80;20836;-65
2022/02/05 05:55:46;;;;;;;12.07;9.38;;;;;;;1.41;71.24;97388.75;1778482;80;22239;-65
2022/02/05 05:58:14;;;;;;;19.52;10.85;;;;;;;1.41;71.22;97391.39;1778423;80;20932;-61
2022/02/05 06:00:41;;;;;;;15.10;10.10;;;;;;;1.42;70.96;97393.77;1778758;80;21517;-61
2022/02/05 06:03:08;;;;;;;15.32;9.40;;;;;;;1.44;70.76;97381.67;1750265;80;21025;-65
2022/02/05 06:05:35;;;;;;;15.85;10.75;;;;;;;1.42;70.31;97368.70;1778461;80;20915;-69
2022/02/05 06:08:04;;;;;;;17.30;10.93;;;;;;;1.44;70.44;97365.84;1778463;80;21109;-63
2022/02/05 06:10:31;;;;;;;16.27;10.32;;;;;;;1.43;70.41;97369.50;1778363;78;20879;-68
2022/02/05 06:12:59;;;;;;;13.40;9.80;;;;;;;1.42;70.34;97366.58;1778355;80;20879;-67
2022/02/05 06:15:26;;;;;;;14.15;9.23;;;;;;;1.42;70.28;97374.49;1778558;80;20879;-65
2022/02/05 06:17:53;;;;;;;12.70;8.78;;;;;;;1.42;70.29;97392.97;1778564;80;20906;-64
2022/02/05 06:20:22;;;;;;;12.40;8.08;;;;;;;1.44;70.28;97376.39;1778369;80;20883;-65
2022/02/05 06:22:49;;;;;;;13.18;9.23;;;;;;;1.46;70.17;97375.62;1778486;80;21517;-67
2022/02/05 06:25:15;;;;;;;13.08;8.80;;;;;;;1.46;70.22;97374.30;1778432;80;20859;-68
2022/02/05 06:27:42;;;;;;;13.83;9.88;;;;;;;1.45;70.16;97368.73;1778429;80;20919;-68
2022/02/05 06:30:10;;;;;;;13.60;9.43;;;;;;;1.44;70.16;97381.13;1778677;80;21493;-67
2022/02/05 06:32:37;;;;;;;16.52;10.03;;;;;;;1.46;70.08;97361.88;1778711;80;21670;-65
2022/02/05 06:35:05;;;;;;;19.55;12.78;;;;;;;1.47;70.09;97381.16;1778393;80;21004;-69
2022/02/05 06:37:31;;;;;;;16.85;11.22;;;;;;;1.47;70.22;97374.55;1778839;80;21497;-62
2022/02/05 06:39:58;;;;;;;14.33;9.80;;;;;;;1.49;70.22;97369.83;1778571;80;20959;-64
2022/02/05 06:42:26;;;;;;;13.55;9.55;;;;;;;1.49;70.17;97377.23;1778627;80;20840;-65
2022/02/05 06:44:52;;;;;;;14.75;9.33;;;;;;;1.51;70.11;97368.53;1778488;80;21202;-67
2022/02/05 06:47:19;;;;;;;10.30;8.25;;;;;;;1.51;70.14;97363.80;1778537;80;20922;-69
2022/02/05 06:49:45;;;;;;;14.68;9.10;;;;;;;1.52;70.08;97362.73;1778598;80;20867;-65
2022/02/05 06:52:12;;;;;;;11.80;8.85;;;;;;;1.50;70.02;97366.16;1778831;80;20958;-61
2022/02/05 06:54:39;;;;;;;16.48;8.80;;;;;;;1.51;69.98;97367.77;1778498;80;20939;-67
2022/02/05 06:57:06;;;;;;;35.70;21.27;;;;;;;1.52;70.08;97362.73;1778593;80;21501;-62
2022/02/05 06:59:33;;;;;;;19.82;11.95;;;;;;;1.52;70.09;97355.63;1778630;80;21409;-65
2022/02/05 07:02:00;;;;;;;19.10;12.03;;;;;;;1.52;70.14;97347.70;1778607;80;21050;-65
2022/02/05 07:04:27;;;;;;;15.00;10.65;;;;;;;1.53;70.21;97355.11;1778581;80;20907;-65
2022/02/05 07:06:54;;;;;;;13.70;10.00;;;;;;;1.53;70.24;97356.43;1778763;80;20919;-69
2022/02/05 07:09:24;;;;;;;12.73;9.10;;;;;;;1.53;70.40;97352.47;1778521;78;21454;-63
2022/02/05 07:11:52;;;;;;;15.03;10.18;;;;;;;1.54;70.37;97354.05;1778736;80;21414;-65
2022/02/05 07:14:23;;;;;;;14.58;9.83;;;;;;;1.54;70.14;97358.81;1778684;80;21540;-68
2022/02/05 07:16:56;;;;;;;24.95;17.80;;;;;;;1.53;70.27;97354.56;1778290;80;20934;-68
2022/02/05 07:19:25;;;;;;;52.78;26.30;;;;;;;1.54;70.17;97350.89;1777460;80;21374;-63
2022/02/05 07:21:50;;;;;;;105.32;51.35;;;;;;;1.59;70.24;97363.34;1777255;80;21114;-65
2022/02/05 07:29:27;;;;;;;141.05;58.55;;;;;;;1.67;70.62;97359.73;1778533;80;20999;-68
2022/02/05 07:31:57;;;;;;;98.05;54.00;;;;;;;1.70;70.68;97362.40;1778680;80;20898;-67
2022/02/05 07:34:28;;;;;;;26.75;18.90;;;;;;;1.73;70.80;97351.34;1778938;80;21082;-68
2022/02/05 07:37:00;;;;;;;23.85;17.82;;;;;;;1.76;70.79;97356.14;1778483;80;20899;-62
2022/02/05 07:39:25;;;;;;;19.05;12.82;;;;;;;1.78;70.76;97343.48;1778490;80;21039;-70
2022/02/05 07:41:51;;;;;;;15.53;11.63;;;;;;;1.80;70.79;97342.70;1778552;80;20926;-70
2022/02/05 07:44:19;;;;;;;18.75;12.13;;;;;;;1.80;70.75;97328.98;1778533;80;20895;-68
2022/02/05 07:46:49;;;;;;;23.35;14.75;;;;;;;1.80;70.80;97335.58;1778504;80;21683;-66
2022/02/05 07:49:16;;;;;;;53.90;28.35;;;;;;;1.79;70.92;97329.25;1778760;80;20879;-68
2022/02/05 07:51:43;;;;;;;67.65;33.50;;;;;;;1.80;70.89;97330.82;1778626;80;20911;-63
2022/02/05 07:54:11;;;;;;;53.50;29.45;;;;;;;1.79;71.02;97320.00;1750327;80;20974;-65
2022/02/05 07:56:43;;;;;;;60.60;30.75;;;;;;;1.81;71.00;97313.94;1778779;80;21355;-68
2022/02/05 07:59:15;;;;;;;24.25;14.63;;;;;;;1.82;71.12;97308.92;1777593;80;21051;-68
2022/02/05 08:01:41;;;;;;;37.58;20.27;;;;;;;1.85;70.92;97317.15;1778402;80;21513;-63
2022/02/05 08:04:08;;;;;;;29.32;17.27;;;;;;;1.86;71.02;97316.63;1778539;80;20879;-63
2022/02/05 08:06:38;;;;;;;80.57;34.33;;;;;;;1.84;71.12;97314.22;1778459;80;20860;-68
2022/02/05 08:09:25;;;;;;;32.90;18.20;;;;;;;1.86;71.20;97307.39;1783804;78;21063;-65
2022/02/05 08:12:00;;;;;;;52.40;25.60;;;;;;;1.88;71.16;97317.17;1811987;79;21113;-63
2022/02/05 08:14:23;;;;;;;43.92;24.12;;;;;;;1.90;71.29;97312.44;1812906;79;21332;-63
2022/02/05 08:17:00;;;;;;;38.85;20.15;;;;;;;1.92;71.22;97314.30;1813566;79;21037;-65
2022/02/05 08:19:22;;;;;;;47.23;24.27;;;;;;;1.93;71.25;97314.03;1812751;79;20957;-68
2022/02/05 08:21:49;;;;;;;20.97;13.62;;;;;;;1.94;71.30;97314.84;1813803;79;21036;-65
2022/02/05 08:24:17;;;;;;;22.65;15.45;;;;;;;1.99;71.14;97313.56;1813779;79;21738;-61
2022/02/05 08:26:44;;;;;;;28.85;19.27;;;;;;;2.03;71.16;97306.72;1813485;79;21448;-68
2022/02/05 08:29:13;;;;;;;19.73;15.23;;;;;;;2.07;71.24;97317.08;1813582;79;20870;-68
2022/02/05 08:31:39;;;;;;;21.20;13.60;;;;;;;2.12;71.09;97313.13;1813637;78;21464;-65
2022/02/05 08:34:06;;;;;;;19.55;12.20;;;;;;;2.18;71.02;97305.53;1813606;79;20858;-62
2022/02/05 08:36:45;;;;;;;17.98;12.73;;;;;;;2.22;70.96;97313.22;1813447;79;21034;-65
2022/02/05 08:39:12;;;;;;;27.22;17.23;;;;;;;2.28;70.81;97301.65;1813805;79;20930;-67
2022/02/05 08:41:39;;;;;;;19.42;12.78;;;;;;;2.34;70.73;97308.55;1813562;79;20957;-68
2022/02/05 08:44:09;;;;;;;16.23;10.78;;;;;;;2.41;70.36;97305.68;1813533;79;20862;-68
2022/02/05 08:46:36;;;;;;;20.82;13.10;;;;;;;2.48;70.28;97311.55;1813558;79;20874;-67
2022/02/05 08:49:04;;;;;;;21.95;13.38;;;;;;;2.50;70.15;97308.92;1813576;79;21507;-68
2022/02/05 08:51:33;;;;;;;18.45;11.68;;;;;;;2.53;70.10;97312.38;1813482;79;20917;-63
2022/02/05 08:54:00;;;;;;;16.05;10.98;;;;;;;2.59;69.96;97317.95;1813448;79;21514;-63
2022/02/05 08:56:27;;;;;;;20.88;12.20;;;;;;;2.60;69.94;97323.53;1813540;79;20921;-69
2022/02/05 08:58:55;;;;;;;19.55;13.30;;;;;;;2.59;70.15;97319.28;1813475;79;20843;-66
2022/02/05 09:01:28;;;;;;;22.32;13.50;;;;;;;2.59;70.38;97319.28;1813712;79;21083;-69
2022/02/05 09:06:30;;;;;;;;;;;;;;;2.57;71.13;97316.62;1816559;79;20874;-68
2022/02/05 09:09:08;;;;;;;22.15;14.23;;;;;;;2.57;71.34;97329.31;1813379;79;20078;-65
2022/02/05 09:14:13;;;;;;;22.65;12.90;;;;;;;2.57;71.85;97331.96;1787114;79;21018;-67
2022/02/05 09:16:29;;;;;;;13.35;10.10;;;;;;;2.58;72.07;97345.47;1811940;79;20921;-65
2022/02/05 09:18:56;;;;;;;13.28;10.60;;;;;;;2.63;72.87;97344.70;1814001;78;20909;-67
2022/02/05 09:21:25;;;;;;;14.73;9.35;;;;;;;2.64;73.48;97362.14;1814070;78;20933;-68
2022/02/05 09:23:55;;;;;;;15.18;9.75;;;;;;;2.64;74.85;97347.59;1814666;79;45299;-68
2022/02/05 09:26:24;;;;;;;12.18;9.18;;;;;;;2.62;75.60;97353.67;1814152;79;21788;-67
2022/02/05 09:28:52;;;;;;;12.58;9.13;;;;;;;2.60;76.32;97355.26;1814032;78;20922;-70
2022/02/05 09:31:32;;;;;;;14.28;10.05;;;;;;;2.62;77.17;97345.22;1813985;79;20953;-68
2022/02/05 09:33:58;;;;;;;14.83;10.20;;;;;;;2.63;77.60;97335.45;1813859;79;21397;-67
2022/02/05 09:36:26;;;;;;;16.45;11.22;;;;;;;2.63;78.05;97338.09;1814028;79;21440;-63
2022/02/05 09:38:55;;;;;;;19.30;12.60;;;;;;;2.60;78.50;97335.95;1814085;79;21115;-64
2022/02/05 09:41:23;;;;;;;16.93;12.13;;;;;;;2.56;78.92;97334.35;1814302;79;20964;-68
2022/02/05 09:43:50;;;;;;;18.40;11.12;;;;;;;2.55;79.48;97339.36;1813948;79;20960;-62
2022/02/05 09:46:18;;;;;;;14.83;10.40;;;;;;;2.55;79.89;97336.71;1814303;79;20870;-62
2022/02/05 09:48:47;;;;;;;14.13;10.23;;;;;;;2.53;80.39;97336.17;1787558;79;20893;-69
2022/02/05 09:51:18;;;;;;;14.85;10.58;;;;;;;2.57;80.72;97336.45;1814204;79;21226;-66
2022/02/05 09:53:48;;;;;;;13.48;9.85;;;;;;;2.62;81.18;97346.54;1814269;79;21368;-64
2022/02/05 09:59:11;;;;;;;17.75;12.30;;;;;;;2.65;81.65;97339.95;1784188;80;21007;-67
2022/02/05 10:01:39;;;;;;;16.27;11.10;;;;;;;2.69;81.78;97347.63;1784390;80;21423;-67
2022/02/05 10:04:12;;;;;;;16.50;11.78;;;;;;;2.71;82.04;97341.03;1784181;80;21487;-61
2022/02/05 10:06:48;;;;;;;16.90;11.97;;;;;;;2.72;82.14;97338.68;1784003;80;20935;-65
2022/02/05 10:09:16;;;;;;;16.30;12.73;;;;;;;2.78;82.26;97347.97;1784295;80;21376;-61
2022/02/05 10:11:59;;;;;;;15.08;10.58;;;;;;;2.84;82.34;97350.38;1784436;80;20952;-63
2022/02/05 10:14:29;;;;;;;13.43;9.43;;;;;;;2.88;81.89;97371.81;1784336;80;20956;-62
2022/02/05 10:16:58;;;;;;;14.65;10.50;;;;;;;2.91;80.68;97360.20;1784486;80;21121;-63
2022/02/05 10:19:27;;;;;;;13.98;9.93;;;;;;;2.93;80.43;97361.26;1784142;80;20865;-69
2022/02/05 10:22:05;;;;;;;11.70;8.63;;;;;;;2.96;80.19;97369.50;1780876;80;20949;-62
2022/02/05 10:24:32;;;;;;;13.40;10.38;;;;;;;3.01;79.89;97368.73;1784201;80;20948;-66
2022/02/05 10:26:59;;;;;;;14.53;10.90;;;;;;;3.05;79.09;97379.05;1731613;80;20944;-70
2022/02/05 10:29:26;;;;;;;17.07;11.95;;;;;;;3.07;78.74;97389.66;1784285;80;21436;-63
2022/02/05 10:32:14;;;;;;;19.12;12.53;;;;;;;3.10;78.53;97382.54;1784226;80;20948;-66
2022/02/05 10:34:57;;;;;;;15.23;10.53;;;;;;;3.12;78.28;97381.75;1784327;80;20944;-63
2022/02/05 10:37:24;;;;;;;12.88;10.35;;;;;;;3.11;77.97;97392.05;1780784;80;21487;-64
2022/02/05 10:45:15;;;;;;;13.00;10.85;;;;;;;3.17;78.26;97385.75;1784254;80;20936;-63
2022/02/05 10:47:55;;;;;;;32.40;24.45;;;;;;;3.22;78.26;97399.53;1784490;80;21427;-65
2022/02/05 10:50:30;;;;;;;17.85;12.07;;;;;;;3.22;78.39;97392.91;1784305;80;21442;-61
2022/02/05 10:53:16;;;;;;;19.12;11.60;;;;;;;3.21;78.85;97391.31;1784586;80;20905;-64
2022/02/05 10:56:09;;;;;;;15.80;11.12;;;;;;;3.14;79.06;97399.48;1781157;80;21175;-67
2022/02/05 11:07:20;;;;;;;15.80;11.08;;;;;;;2.97;81.04;97420.56;1813860;79;20937;-64
2022/02/05 11:09:52;;;;;;;13.43;11.45;;;;;;;2.91;81.59;97417.08;1814189;79;21680;-65
2022/02/05 11:20:15;;;;;;;13.65;10.00;;;;;;;2.97;82.44;97420.02;1813676;79;20905;-70
2022/02/05 11:23:01;;;;;;;12.78;8.75;;;;;;;3.04;82.17;97429.08;1813713;79;21118;-65
2022/02/05 11:25:34;;;;;;;11.57;8.75;;;;;;;3.11;81.60;97425.67;1813454;78;20877;-60
2022/02/05 11:28:02;;;;;;;13.13;8.03;;;;;;;3.18;80.76;97423.05;1813874;79;21409;-67
2022/02/05 11:30:32;;;;;;;10.28;7.22;;;;;;;3.18;79.85;97416.98;1813499;79;20992;-63
2022/02/05 11:33:06;;;;;;;8.85;6.33;;;;;;;3.19;79.45;97427.83;1813658;79;22007;-61
2022/02/05 11:36:09;;;;;;;8.33;5.97;;;;;;;3.21;78.48;97421.22;1813849;79;21023;-62
2022/02/05 11:38:15;;;;;;;7.30;5.47;;;;;;;3.25;77.89;97421.52;1810570;79;20914;-65
2022/02/05 11:40:52;;;;;;;9.03;5.80;;;;;;;3.23;76.08;97423.60;1813617;79;20988;-67
2022/02/05 11:43:31;;;;;;;8.20;4.95;;;;;;;3.23;76.17;97423.08;1813509;79;21381;-64
2022/02/05 11:46:08;;;;;;;6.55;4.37;;;;;;;3.25;75.33;97425.49;1813521;79;20874;-65
2022/02/05 11:48:54;;;;;;;5.85;4.47;;;;;;;3.28;74.54;97423.63;1813524;79;21202;-65
2022/02/05 11:51:48;;;;;;;6.42;3.77;;;;;;;3.31;74.39;97424.45;1813581;79;21385;-67
2022/02/05 11:54:16;;;;;;;4.45;3.40;;;;;;;3.33;73.96;97426.31;1813912;78;20953;-69
2022/02/05 11:56:55;;;;;;;5.08;3.25;;;;;;;3.34;72.65;97435.86;1813742;78;21480;-63
2022/02/05 11:59:25;;;;;;;3.85;2.98;;;;;;;3.30;72.05;97444.02;1813447;78;20929;-69
2022/02/05 12:02:16;;;;;;;5.90;3.17;;;;;;;3.25;71.60;97438.73;1814053;79;21066;-65
2022/02/05 12:04:42;;;;;;;3.45;2.50;;;;;;;3.25;71.40;97441.38;1813588;78;20893;-66
2022/02/05 12:07:10;;;;;;;4.40;3.00;;;;;;;3.25;71.77;97444.02;1813564;79;20870;-67
2022/02/05 12:09:43;;;;;;;4.28;3.30;;;;;;;3.27;71.85;97441.91;1813530;79;20847;-63
2022/02/05 12:12:37;;;;;;;4.47;3.02;;;;;;;3.28;71.54;97454.07;1813860;79;21062;-66
2022/02/05 12:15:19;;;;;;;3.83;2.58;;;;;;;3.26;71.58;97453.53;1813582;79;21007;-62
2022/02/05 12:18:09;;;;;;;4.80;2.98;;;;;;;3.19;71.27;97463.03;1813443;79;20858;-62
2022/02/05 12:20:33;;;;;;;4.45;2.50;;;;;;;3.14;71.23;97458.22;1812574;78;21003;-67
2022/02/05 12:23:12;;;;;;;3.60;2.25;;;;;;;3.12;71.43;97464.30;1813983;79;20961;-66
2022/02/05 12:25:54;;;;;;;3.47;2.60;;;;;;;3.10;71.09;97462.44;1812722;78;20866;-65
2022/02/05 12:28:36;;;;;;;3.05;2.40;;;;;;;3.08;71.18;97469.84;1796647;79;21117;-69
2022/02/05 12:31:04;;;;;;;4.12;3.10;;;;;;;3.05;70.61;97470.34;1813425;79;20949;-67
2022/02/05 12:33:45;;;;;;;3.60;2.35;;;;;;;3.02;70.92;97488.04;1813567;79;20964;-65
2022/02/05 12:36:38;;;;;;;3.77;2.20;;;;;;;3.01;70.49;97478.52;1813521;79;21475;-64
2022/02/05 12:39:12;;;;;;;3.52;2.17;;;;;;;3.04;70.47;97480.67;1813699;79;20939;-63
2022/02/05 12:41:52;;;;;;;2.92;1.77;;;;;;;3.03;70.39;97483.03;1813616;79;21110;-63
2022/02/05 12:44:23;;;;;;;4.45;2.65;;;;;;;3.04;70.39;97489.93;1812874;79;20870;-69
2022/02/05 12:47:03;;;;;;;3.95;2.37;;;;;;;3.02;69.65;97491.48;1813644;79;20965;-65
2022/02/05 12:49:34;;;;;;;4.08;2.30;;;;;;;3.01;69.75;97497.84;1813487;79;20870;-63
2022/02/05 12:51:59;;;;;;;3.90;1.70;;;;;;;2.99;69.88;97503.12;1812937;78;21489;-63
2022/02/05 12:54:27;;;;;;;4.80;2.00;;;;;;;3.00;69.79;97509.47;1813547;79;21180;-65
2022/02/05 12:56:56;;;;;;;2.62;1.72;;;;;;;3.02;69.86;97502.59;1813392;79;20910;-62
2022/02/05 12:59:35;;;;;;;4.20;1.82;;;;;;;3.00;69.58;97509.47;1813451;78;21515;-65
2022/02/05 13:02:08;;;;;;;3.47;1.80;;;;;;;2.98;69.62;97510.77;1813563;78;20949;-61
2022/02/05 13:04:41;;;;;;;3.20;1.72;;;;;;;2.94;69.28;97513.14;1813771;79;20917;-62
2022/02/05 13:07:18;;;;;;;4.30;2.42;;;;;;;2.91;69.05;97524.73;1813947;79;21085;-63
2022/02/05 13:09:49;;;;;;;6.22;2.10;;;;;;;2.87;69.18;97507.78;1813397;79;20860;-66
2022/02/05 13:12:30;;;;;;;2.80;1.92;;;;;;;2.83;69.23;97514.64;1813653;79;20873;-65
2022/02/05 13:15:23;;;;;;;5.95;2.20;;;;;;;2.81;69.28;97524.64;1811736;78;20881;-63
2022/02/05 13:26:13;;;;;;;5.47;2.20;;;;;;;2.76;69.58;97543.39;1813604;79;20098;-65
2022/02/05 13:28:52;;;;;;;3.75;2.20;;;;;;;2.77;69.80;97533.63;1813367;78;20846;-62
2022/02/05 13:34:08;;;;;;;5.65;2.90;;;;;;;2.76;69.56;97540.75;1813918;78;21108;-64
2022/02/05 13:36:45;;;;;;;5.45;2.62;;;;;;;2.74;69.45;97534.92;1813001;78;20976;-63
2022/02/05 13:44:24;;;;;;;5.00;2.77;;;;;;;2.77;69.77;97529.66;1813752;79;21444;-67
2022/02/05 13:47:06;;;;;;;6.28;2.40;;;;;;;2.81;69.84;97528.09;1813536;78;21115;-63
2022/02/05 13:49:34;;;;;;;3.72;2.35;;;;;;;2.86;69.36;97528.66;1806345;79;20953;-69
2022/02/05 13:52:14;;;;;;;8.35;2.37;;;;;;;2.88;69.37;97533.97;1813972;79;20996;-61
2022/02/05 13:54:42;;;;;;;4.42;2.50;;;;;;;2.89;69.56;97532.13;1813725;79;20881;-68
2022/02/05 13:57:12;;;;;;;3.85;2.20;;;;;;;2.89;69.23;97541.39;1814042;79;20921;-67
2022/02/05 13:59:39;;;;;;;5.80;2.20;;;;;;;2.89;69.36;97540.06;1820596;78;21045;-68
2022/02/05 14:02:20;;;;;;;3.72;2.30;;;;;;;2.88;69.11;97535.81;1822257;78;21417;-65
2022/02/05 14:05:10;;;;;;;6.30;2.77;;;;;;;2.87;69.30;97532.91;1822313;78;20909;-63
2022/02/05 14:07:45;;;;;;;5.62;2.58;;;;;;;2.88;69.35;97531.84;1822246;78;21728;-65
2022/02/05 14:10:18;;;;;;;5.97;2.60;;;;;;;2.88;69.02;97533.16;1822614;78;20968;-63
2022/02/05 14:12:55;;;;;;;4.07;2.57;;;;;;;2.85;68.38;97531.05;1822526;78;20842;-69
2022/02/05 14:15:24;;;;;;;4.30;2.33;;;;;;;2.78;68.40;97537.06;1822246;78;20874;-65
2022/02/05 14:18:14;;;;;;;5.30;2.35;;;;;;;2.72;68.31;97538.34;1822597;78;20917;-68
2022/02/05 14:21:00;;;;;;;3.50;1.90;;;;;;;2.70;68.43;97545.73;1822369;78;21005;-61
2022/02/05 14:23:32;;;;;;;4.80;2.72;;;;;;;2.67;67.81;97543.58;1822524;78;23749;-66
2022/02/05 14:26:15;;;;;;;4.60;2.47;;;;;;;2.66;68.03;97547.26;1822234;78;21094;-65